Time;durP1;ratioP1;P1;durP2;ratioP2;P2;SDS_P1;SDS_P2;PMS_P1;PMS_P2;Temp;Humidity;BMP_temperature;BMP_pressure;BME280_temperature;BME280_humidity;BME280_pressure;Samples;Min_cycle;Max_cycle;Signal;HPM_P1;HPM_P2
2022/07/24 00:00:00;;;;;;;7.97;3.25;;;22.10;62.40;;;;;;4892274;29;20078;-63
2022/07/24 00:02:27;;;;;;;6.03;2.90;;;22.10;62.70;;;;;;4892162;29;20044;-62
2022/07/24 00:05:00;;;;;;;7.50;3.22;;;22.10;62.90;;;;;;4889229;29;20444;-64
2022/07/24 00:07:28;;;;;;;6.65;3.22;;;22.10;62.90;;;;;;4897162;29;20076;-62
2022/07/24 00:09:55;;;;;;;6.15;3.13;;;22.10;63.20;;;;;;4886994;29;20052;-62
2022/07/24 00:12:23;;;;;;;5.85;3.20;;;22.10;63.60;;;;;;4901628;29;20048;-63
2022/07/24 00:14:50;;;;;;;5.82;2.75;;;22.00;63.90;;;;;;4887697;29;20385;-62
2022/07/24 00:17:17;;;;;;;7.05;3.50;;;21.90;63.90;;;;;;4887641;29;20063;-62
2022/07/24 00:19:44;;;;;;;4.82;3.20;;;21.90;63.90;;;;;;4895605;29;20671;-64
2022/07/24 00:22:11;;;;;;;8.27;3.45;;;21.90;63.80;;;;;;4879608;29;20382;-62
2022/07/24 00:24:39;;;;;;;4.72;2.42;;;21.90;64.00;;;;;;4869714;29;21910;-62
2022/07/24 00:27:06;;;;;;;4.70;2.63;;;21.80;64.10;;;;;;4871039;29;20060;-62
2022/07/24 00:29:34;;;;;;;5.60;3.00;;;21.80;64.20;;;;;;4880603;29;20064;-64
2022/07/24 00:32:00;;;;;;;5.00;2.92;;;21.70;64.30;;;;;;4888328;29;20059;-63
2022/07/24 00:34:29;;;;;;;5.40;2.78;;;21.70;64.40;;;;;;4888111;29;20105;-63
2022/07/24 00:36:55;;;;;;;5.55;2.30;;;21.70;64.30;;;;;;4892491;29;20044;-63
2022/07/24 00:39:22;;;;;;;6.55;3.10;;;21.70;64.40;;;;;;4886899;29;20060;-62
2022/07/24 00:41:52;;;;;;;5.15;2.60;;;21.60;64.20;;;;;;4881336;29;20049;-62
2022/07/24 00:44:20;;;;;;;5.03;2.65;;;21.60;64.10;;;;;;4884167;29;20049;-63
2022/07/24 00:46:48;;;;;;;5.75;2.63;;;21.60;64.10;;;;;;4884842;29;20163;-63
2022/07/24 00:49:18;;;;;;;6.38;2.78;;;21.60;64.10;;;;;;4890637;29;21332;-61
2022/07/24 00:51:46;;;;;;;4.60;2.67;;;21.60;64.10;;;;;;4881992;29;20060;-62
2022/07/24 00:54:14;;;;;;;4.30;2.50;;;21.60;64.10;;;;;;4891118;29;20131;-63
2022/07/24 00:56:42;;;;;;;7.88;2.92;;;21.60;64.00;;;;;;4887883;29;20063;-63
2022/07/24 00:59:11;;;;;;;10.00;3.75;;;21.60;64.20;;;;;;4890427;29;20057;-62
2022/07/24 01:01:38;;;;;;;5.25;2.78;;;21.50;64.30;;;;;;4886844;29;20059;-63
2022/07/24 01:04:05;;;;;;;5.78;3.03;;;21.50;64.50;;;;;;4892895;29;20387;-64
2022/07/24 01:06:32;;;;;;;5.35;2.67;;;21.50;64.50;;;;;;4888133;29;20450;-62
2022/07/24 01:08:59;;;;;;;4.05;2.30;;;21.40;64.70;;;;;;4885685;29;20045;-64
2022/07/24 01:11:29;;;;;;;7.75;2.58;;;21.40;64.80;;;;;;4887868;29;20131;-62
2022/07/24 01:13:56;;;;;;;4.30;2.58;;;21.40;64.90;;;;;;4888079;29;20113;-64
2022/07/24 01:16:25;;;;;;;4.80;2.72;;;21.40;64.90;;;;;;4882714;29;20068;-62
2022/07/24 01:18:52;;;;;;;5.22;2.63;;;21.30;65.10;;;;;;4884192;29;20067;-64
2022/07/24 01:21:20;;;;;;;4.82;2.58;;;21.30;65.10;;;;;;4879757;29;20048;-62
2022/07/24 01:23:47;;;;;;;4.13;2.20;;;21.30;65.00;;;;;;4888696;29;20056;-62
2022/07/24 01:26:14;;;;;;;4.72;2.72;;;21.30;65.10;;;;;;4879314;29;20403;-62
2022/07/24 01:28:41;;;;;;;4.80;2.50;;;21.20;65.10;;;;;;4891730;29;20057;-64
2022/07/24 01:31:08;;;;;;;3.97;2.30;;;21.20;65.30;;;;;;4893598;29;20052;-61
2022/07/24 01:33:35;;;;;;;4.55;2.38;;;21.20;65.40;;;;;;4885427;29;20049;-61
2022/07/24 01:36:02;;;;;;;4.78;2.50;;;21.20;65.40;;;;;;4893984;29;20052;-61
2022/07/24 01:38:30;;;;;;;5.25;2.28;;;21.20;65.40;;;;;;4892078;29;20480;-64
2022/07/24 01:40:57;;;;;;;4.55;2.63;;;21.20;65.40;;;;;;4878123;29;20505;-63
2022/07/24 01:43:24;;;;;;;4.07;2.35;;;21.20;65.40;;;;;;4891034;29;20056;-64
2022/07/24 01:45:51;;;;;;;4.15;2.40;;;21.10;65.40;;;;;;4889090;29;20056;-63
2022/07/24 01:48:18;;;;;;;4.07;2.35;;;21.10;65.50;;;;;;4881403;29;20112;-62
2022/07/24 01:50:45;;;;;;;4.15;2.38;;;21.10;65.50;;;;;;4896093;29;20044;-61
2022/07/24 01:53:12;;;;;;;4.20;2.65;;;21.00;65.70;;;;;;4882061;29;20041;-64
2022/07/24 01:55:40;;;;;;;6.78;3.05;;;21.00;65.90;;;;;;4895024;29;20053;-61
2022/07/24 01:58:07;;;;;;;4.20;2.58;;;21.00;66.00;;;;;;4892753;29;20063;-63
2022/07/24 02:00:34;;;;;;;4.57;2.42;;;20.90;66.20;;;;;;4876647;29;20049;-62
2022/07/24 02:03:01;;;;;;;5.55;2.83;;;20.90;66.40;;;;;;4894391;29;20049;-64
2022/07/24 02:05:29;;;;;;;4.40;2.47;;;20.90;66.40;;;;;;4882415;29;20555;-63
2022/07/24 02:07:59;;;;;;;7.82;3.45;;;20.90;66.50;;;;;;4891752;29;20079;-63
2022/07/24 02:10:27;;;;;;;5.20;2.53;;;20.90;66.60;;;;;;4887981;29;20056;-63
2022/07/24 02:12:57;;;;;;;5.88;3.03;;;20.80;66.70;;;;;;4893871;29;20037;-61
2022/07/24 02:15:24;;;;;;;6.82;3.17;;;20.90;66.90;;;;;;4891306;29;20049;-63
2022/07/24 02:17:53;;;;;;;5.00;2.67;;;20.80;67.00;;;;;;4890997;29;20052;-62
2022/07/24 02:20:20;;;;;;;7.20;3.60;;;20.90;66.90;;;;;;4882636;29;20053;-61
2022/07/24 02:22:47;;;;;;;4.05;2.58;;;20.80;66.90;;;;;;4898037;29;20053;-62
2022/07/24 02:25:15;;;;;;;6.03;2.65;;;20.80;67.00;;;;;;4883003;29;20049;-64
2022/07/24 02:27:42;;;;;;;5.30;2.72;;;20.70;67.00;;;;;;4884200;29;20063;-64
2022/07/24 02:30:13;;;;;;;3.63;2.30;;;20.60;67.00;;;;;;4879840;29;20057;-61
2022/07/24 02:32:39;;;;;;;4.75;2.40;;;20.60;67.20;;;;;;4893691;29;20052;-62
2022/07/24 02:35:07;;;;;;;5.20;2.78;;;20.60;67.20;;;;;;4900455;29;20079;-63
2022/07/24 02:37:36;;;;;;;4.72;2.88;;;20.60;67.20;;;;;;4887405;29;20511;-62
2022/07/24 02:40:03;;;;;;;5.97;2.33;;;20.60;67.30;;;;;;4884948;29;20828;-64
2022/07/24 02:42:30;;;;;;;5.07;2.40;;;20.60;67.30;;;;;;4894409;29;20050;-64
2022/07/24 02:44:57;;;;;;;4.95;2.60;;;20.50;67.40;;;;;;4875359;29;20049;-62
2022/07/24 02:47:25;;;;;;;4.50;2.42;;;20.50;67.50;;;;;;4897156;29;20075;-63
2022/07/24 02:49:52;;;;;;;4.18;2.00;;;20.40;67.60;;;;;;4887360;29;20053;-63
2022/07/24 02:52:19;;;;;;;5.05;2.40;;;20.40;67.60;;;;;;4898834;29;20060;-62
2022/07/24 02:54:46;;;;;;;3.95;2.40;;;20.40;67.60;;;;;;4882053;29;20056;-63
2022/07/24 02:57:13;;;;;;;4.20;2.13;;;20.40;67.50;;;;;;4890759;29;20366;-64
2022/07/24 02:59:40;;;;;;;4.43;1.90;;;20.30;67.40;;;;;;4891644;29;20516;-62
2022/07/24 03:02:07;;;;;;;4.47;2.65;;;20.30;67.50;;;;;;4885664;29;20055;-63
2022/07/24 03:04:35;;;;;;;4.78;2.28;;;20.30;67.60;;;;;;4890333;29;20045;-63
2022/07/24 03:07:02;;;;;;;4.65;2.30;;;20.30;67.60;;;;;;4891290;29;20056;-64
2022/07/24 03:09:29;;;;;;;4.15;2.25;;;20.20;67.70;;;;;;4884379;29;20059;-63
2022/07/24 03:11:56;;;;;;;4.55;2.30;;;20.20;67.90;;;;;;4887376;29;20044;-61
2022/07/24 03:14:23;;;;;;;5.03;2.78;;;20.20;68.00;;;;;;4886886;29;20049;-64
2022/07/24 03:16:49;;;;;;;5.50;2.38;;;20.10;67.90;;;;;;4890852;29;20064;-63
2022/07/24 03:19:16;;;;;;;5.28;2.50;;;20.10;68.00;;;;;;4901621;29;20059;-62
2022/07/24 03:21:45;;;;;;;4.15;2.45;;;20.00;68.10;;;;;;4878474;29;20059;-63
2022/07/24 03:24:11;;;;;;;3.85;2.25;;;20.10;68.10;;;;;;4900126;29;20063;-63
2022/07/24 03:26:38;;;;;;;4.65;2.63;;;20.00;68.30;;;;;;4901893;29;20063;-61
2022/07/24 03:29:05;;;;;;;4.45;2.58;;;20.00;68.40;;;;;;4896141;29;20049;-61
2022/07/24 03:31:32;;;;;;;5.65;2.65;;;20.00;68.40;;;;;;4888481;29;20060;-62
2022/07/24 03:33:59;;;;;;;5.03;2.55;;;20.00;68.40;;;;;;4889714;29;20044;-61
2022/07/24 03:36:26;;;;;;;5.70;2.42;;;20.00;68.40;;;;;;4873050;29;20048;-63
2022/07/24 03:38:54;;;;;;;3.78;2.20;;;20.00;68.40;;;;;;4880323;29;20059;-63
2022/07/24 03:41:21;;;;;;;3.63;2.30;;;20.00;68.30;;;;;;4887952;29;20052;-62
2022/07/24 03:43:48;;;;;;;5.03;2.53;;;19.90;68.50;;;;;;4886781;29;20045;-62
2022/07/24 03:46:15;;;;;;;6.05;2.20;;;19.90;68.60;;;;;;4890757;29;20143;-61
2022/07/24 03:48:42;;;;;;;5.43;2.90;;;19.80;68.60;;;;;;4883660;29;20061;-62
2022/07/24 03:51:09;;;;;;;5.85;2.65;;;19.80;68.70;;;;;;4886216;29;20127;-63
2022/07/24 03:53:36;;;;;;;3.75;2.30;;;19.80;68.70;;;;;;4886112;29;20055;-63
2022/07/24 03:56:07;;;;;;;4.65;2.65;;;19.70;68.90;;;;;;4884038;29;20060;-62
2022/07/24 03:58:34;;;;;;;4.90;2.47;;;19.70;68.90;;;;;;4889261;29;20395;-62
2022/07/24 04:01:02;;;;;;;4.28;2.15;;;19.70;68.90;;;;;;4882460;29;20104;-63
2022/07/24 04:03:29;;;;;;;5.25;2.47;;;19.80;68.90;;;;;;4877999;29;20049;-62
2022/07/24 04:05:56;;;;;;;3.88;2.22;;;19.70;68.80;;;;;;4884665;29;20055;-63
2022/07/24 04:08:23;;;;;;;5.25;2.45;;;19.70;68.80;;;;;;4886009;29;20041;-62
2022/07/24 04:10:56;;;;;;;3.78;2.30;;;19.70;68.70;;;;;;4885959;29;20045;-64
2022/07/24 04:13:25;;;;;;;4.25;2.03;;;19.70;68.70;;;;;;4888962;29;20132;-62
2022/07/24 04:15:52;;;;;;;4.88;2.65;;;19.60;68.80;;;;;;4893201;29;20052;-63
2022/07/24 04:18:19;;;;;;;4.18;2.22;;;19.60;68.80;;;;;;4877605;29;20049;-62
2022/07/24 04:20:46;;;;;;;4.20;2.20;;;19.60;69.00;;;;;;4880664;29;20407;-63
2022/07/24 04:23:13;;;;;;;5.30;2.40;;;19.60;69.10;;;;;;4889956;29;20431;-64
2022/07/24 04:25:40;;;;;;;5.88;2.45;;;19.60;69.10;;;;;;4884409;29;20064;-63
2022/07/24 04:28:07;;;;;;;4.57;2.75;;;19.60;69.20;;;;;;4890485;29;20048;-63
2022/07/24 04:30:36;;;;;;;4.63;2.15;;;19.60;69.20;;;;;;4886003;29;20047;-62
2022/07/24 04:33:03;;;;;;;5.15;2.75;;;19.60;69.30;;;;;;4890588;29;20060;-64
2022/07/24 04:35:30;;;;;;;3.63;2.25;;;19.60;69.40;;;;;;4882230;29;20053;-60
2022/07/24 04:37:57;;;;;;;6.68;2.58;;;19.60;69.50;;;;;;4891131;29;20047;-63
2022/07/24 04:40:24;;;;;;;5.03;2.65;;;19.60;69.70;;;;;;4890440;29;20045;-62
2022/07/24 04:42:51;;;;;;;6.07;2.65;;;19.60;69.80;;;;;;4885955;29;20044;-63
2022/07/24 04:45:18;;;;;;;4.32;2.28;;;19.60;69.80;;;;;;4885629;29;20047;-62
2022/07/24 04:47:46;;;;;;;3.80;2.45;;;19.60;69.70;;;;;;4893044;29;20056;-62
2022/07/24 04:50:13;;;;;;;5.78;2.78;;;19.60;69.50;;;;;;4890552;29;20131;-62
2022/07/24 04:52:40;;;;;;;4.35;2.58;;;19.60;69.50;;;;;;4891638;29;20056;-61
2022/07/24 04:55:08;;;;;;;5.55;2.80;;;19.60;69.60;;;;;;4897683;29;20387;-61
2022/07/24 04:57:35;;;;;;;5.40;2.28;;;19.60;69.80;;;;;;4886049;29;20048;-62
2022/07/24 05:00:02;;;;;;;4.80;2.30;;;19.70;69.70;;;;;;4889645;29;20510;-61
2022/07/24 05:02:28;;;;;;;4.22;2.72;;;19.70;69.70;;;;;;4890755;29;20472;-63
2022/07/24 05:04:57;;;;;;;4.15;2.53;;;19.70;69.60;;;;;;4886579;29;20045;-63
2022/07/24 05:07:24;;;;;;;4.68;2.42;;;19.70;69.20;;;;;;4890018;29;20062;-62
2022/07/24 05:09:51;;;;;;;6.15;2.58;;;19.80;69.00;;;;;;4889701;29;20176;-62
2022/07/24 05:12:18;;;;;;;5.80;2.97;;;19.80;68.70;;;;;;4890253;29;20052;-62
2022/07/24 05:14:45;;;;;;;5.18;2.20;;;19.80;68.70;;;;;;4879994;29;20045;-62
2022/07/24 05:17:11;;;;;;;4.15;2.53;;;19.80;68.70;;;;;;4887879;29;20064;-61
2022/07/24 05:19:38;;;;;;;4.93;2.72;;;19.80;68.80;;;;;;4886480;29;20076;-62
2022/07/24 05:22:07;;;;;;;4.78;2.35;;;19.90;68.70;;;;;;4887276;29;20060;-63
2022/07/24 05:24:34;;;;;;;5.68;3.03;;;19.90;68.70;;;;;;4890896;29;20060;-62
2022/07/24 05:27:01;;;;;;;6.30;2.78;;;19.90;68.70;;;;;;4877277;29;20041;-63
2022/07/24 05:29:28;;;;;;;7.18;2.67;;;19.90;68.80;;;;;;4892614;29;20053;-62
2022/07/24 05:31:55;;;;;;;4.28;2.28;;;19.90;68.90;;;;;;4880624;29;20044;-62
2022/07/24 05:34:22;;;;;;;6.22;2.90;;;19.90;68.90;;;;;;4887541;29;20480;-62
2022/07/24 05:36:49;;;;;;;4.32;2.42;;;20.00;68.50;;;;;;4890743;29;20052;-62
2022/07/24 05:39:17;;;;;;;6.20;2.92;;;20.10;68.10;;;;;;4882136;29;20054;-62
2022/07/24 05:41:44;;;;;;;5.43;2.28;;;20.10;68.00;;;;;;4890388;29;20056;-63
2022/07/24 05:44:11;;;;;;;4.57;2.75;;;20.10;67.80;;;;;;4888674;29;20056;-61
2022/07/24 05:46:38;;;;;;;5.10;2.55;;;20.10;68.10;;;;;;4877257;29;20093;-61
2022/07/24 05:49:05;;;;;;;4.90;2.83;;;20.20;68.00;;;;;;4879954;29;20048;-62
2022/07/24 05:51:33;;;;;;;4.13;2.53;;;20.20;68.20;;;;;;4885369;29;20060;-62
2022/07/24 05:54:00;;;;;;;4.90;2.45;;;20.20;68.10;;;;;;4875824;29;20052;-64
2022/07/24 05:56:28;;;;;;;5.60;2.80;;;20.30;68.20;;;;;;4894388;29;20679;-62
2022/07/24 05:58:55;;;;;;;5.25;2.38;;;20.40;67.80;;;;;;4896296;29;20756;-64
2022/07/24 06:01:22;;;;;;;4.10;2.42;;;20.40;68.10;;;;;;4884344;29;20048;-65
2022/07/24 06:03:49;;;;;;;6.50;2.72;;;20.50;67.90;;;;;;4883301;29;20506;-63
2022/07/24 06:06:16;;;;;;;4.20;2.28;;;20.60;67.50;;;;;;4874021;29;20432;-63
2022/07/24 06:08:45;;;;;;;5.05;2.22;;;20.60;67.50;;;;;;4883403;29;20077;-62
2022/07/24 06:11:12;;;;;;;5.83;2.93;;;20.60;67.70;;;;;;4889168;29;20061;-62
2022/07/24 06:13:40;;;;;;;5.32;2.42;;;20.70;67.60;;;;;;4886494;29;20056;-62
2022/07/24 06:16:07;;;;;;;6.35;2.58;;;20.70;67.30;;;;;;4886817;29;20052;-65
2022/07/24 06:18:34;;;;;;;4.00;2.60;;;20.80;67.40;;;;;;4883533;29;20052;-64
2022/07/24 06:21:01;;;;;;;4.70;2.63;;;20.80;67.40;;;;;;4883702;29;20128;-62
2022/07/24 06:23:28;;;;;;;5.00;2.50;;;20.90;66.90;;;;;;4878130;29;20161;-64
2022/07/24 06:25:55;;;;;;;7.22;2.33;;;20.90;67.10;;;;;;4884490;29;20187;-62
2022/07/24 06:28:22;;;;;;;5.47;2.85;;;20.90;67.00;;;;;;4882380;29;20572;-63
2022/07/24 06:30:51;;;;;;;4.25;2.50;;;20.90;66.90;;;;;;4894131;29;20059;-64
2022/07/24 06:33:18;;;;;;;3.57;2.20;;;20.90;66.70;;;;;;4904010;29;20079;-62
2022/07/24 06:35:45;;;;;;;6.07;2.70;;;21.00;66.60;;;;;;4890417;29;20490;-62
2022/07/24 06:38:12;;;;;;;4.50;2.65;;;21.00;66.80;;;;;;4894748;29;20147;-63
2022/07/24 06:40:39;;;;;;;5.93;2.80;;;21.10;66.70;;;;;;4886159;29;20522;-63
2022/07/24 06:43:06;;;;;;;5.30;2.90;;;21.20;66.70;;;;;;4883894;29;20498;-62
2022/07/24 06:45:33;;;;;;;4.03;2.40;;;21.20;66.70;;;;;;4890641;29;20045;-63
2022/07/24 06:48:02;;;;;;;4.70;2.58;;;21.40;66.30;;;;;;4893571;29;20044;-62
2022/07/24 06:50:29;;;;;;;5.13;2.67;;;21.50;65.90;;;;;;4886382;29;20059;-61
2022/07/24 06:52:56;;;;;;;4.45;2.53;;;21.60;65.90;;;;;;4886991;29;20063;-62
2022/07/24 06:55:23;;;;;;;4.38;2.53;;;21.70;65.40;;;;;;4874010;29;20780;-61
2022/07/24 06:57:50;;;;;;;4.97;2.42;;;21.80;65.20;;;;;;4881352;29;20160;-63
2022/07/24 07:00:17;;;;;;;5.15;2.60;;;21.90;65.10;;;;;;4879806;29;20050;-63
2022/07/24 07:02:45;;;;;;;4.47;2.55;;;22.00;64.90;;;;;;4879510;29;20094;-64
2022/07/24 07:05:14;;;;;;;5.85;3.42;;;22.10;64.60;;;;;;4887225;29;20061;-64
2022/07/24 07:07:42;;;;;;;8.52;4.20;;;22.30;64.40;;;;;;4888238;29;20435;-62
2022/07/24 07:10:09;;;;;;;7.90;4.47;;;22.40;63.90;;;;;;4884840;29;20056;-63
2022/07/24 07:12:36;;;;;;;10.85;5.30;;;22.60;63.70;;;;;;4871586;29;20163;-65
2022/07/24 07:15:04;;;;;;;9.07;4.57;;;22.60;63.20;;;;;;4880546;29;20081;-64
2022/07/24 07:17:31;;;;;;;7.50;3.30;;;22.80;63.00;;;;;;4886827;29;20051;-65
2022/07/24 07:19:58;;;;;;;5.82;2.40;;;22.90;62.50;;;;;;4887831;29;20040;-63
2022/07/24 07:22:26;;;;;;;5.60;2.80;;;23.00;62.30;;;;;;4881125;29;20053;-62
2022/07/24 07:24:53;;;;;;;6.13;2.85;;;23.10;62.00;;;;;;4884691;29;20127;-63
2022/07/24 07:27:20;;;;;;;6.60;3.67;;;23.30;61.40;;;;;;4884582;29;20465;-63
2022/07/24 07:29:47;;;;;;;5.78;3.45;;;23.50;61.10;;;;;;4886852;29;20402;-64
2022/07/24 07:32:14;;;;;;;5.18;2.60;;;23.60;60.20;;;;;;4881939;29;20048;-62
2022/07/24 07:34:41;;;;;;;5.95;3.03;;;23.70;60.10;;;;;;4866741;29;21076;-64
2022/07/24 07:37:08;;;;;;;4.00;2.70;;;23.90;59.50;;;;;;4885441;29;20049;-64
2022/07/24 07:39:36;;;;;;;3.95;2.55;;;24.00;59.80;;;;;;4884573;29;20053;-64
2022/07/24 07:42:03;;;;;;;5.47;2.97;;;24.10;59.60;;;;;;4881899;29;21167;-64
2022/07/24 07:44:30;;;;;;;4.95;2.33;;;24.30;58.50;;;;;;4886186;29;20062;-62
2022/07/24 07:46:57;;;;;;;4.18;2.30;;;24.40;58.60;;;;;;4885763;29;20075;-63
2022/07/24 07:49:24;;;;;;;6.28;2.72;;;24.50;58.40;;;;;;4885197;29;20086;-63
2022/07/24 07:51:52;;;;;;;4.90;2.58;;;24.60;57.80;;;;;;4882566;29;20064;-64
2022/07/24 07:54:19;;;;;;;4.97;2.60;;;24.60;57.60;;;;;;4884891;29;20120;-64
2022/07/24 07:56:48;;;;;;;4.60;2.58;;;24.80;57.80;;;;;;4885374;29;20419;-64
2022/07/24 07:59:15;;;;;;;4.40;2.70;;;24.90;57.60;;;;;;4884826;29;20704;-63
2022/07/24 08:01:42;;;;;;;5.80;2.67;;;25.00;57.10;;;;;;4893331;29;20472;-64
2022/07/24 08:04:09;;;;;;;4.93;2.97;;;25.10;56.60;;;;;;4885949;29;20140;-63
2022/07/24 08:06:35;;;;;;;5.05;2.90;;;25.30;56.50;;;;;;4890827;29;20055;-64
2022/07/24 08:09:03;;;;;;;5.65;3.47;;;25.50;56.00;;;;;;4881266;29;22620;-64
2022/07/24 08:11:30;;;;;;;7.70;3.50;;;25.60;55.90;;;;;;4889057;29;20081;-64
2022/07/24 08:13:59;;;;;;;5.10;3.22;;;25.70;55.70;;;;;;4891324;29;20052;-63
2022/07/24 08:16:26;;;;;;;5.82;3.58;;;25.80;55.50;;;;;;4881504;29;20083;-65
2022/07/24 08:18:53;;;;;;;5.93;3.60;;;26.00;55.20;;;;;;4887063;29;20055;-64
2022/07/24 08:21:21;;;;;;;6.75;3.22;;;26.10;54.30;;;;;;4890389;29;20049;-65
2022/07/24 08:23:49;;;;;;;6.18;3.50;;;26.20;54.00;;;;;;4885575;29;20192;-63
2022/07/24 08:26:16;;;;;;;7.53;3.53;;;26.30;54.30;;;;;;4885637;29;20437;-65
2022/07/24 08:28:43;;;;;;;5.45;3.20;;;26.40;53.60;;;;;;4885742;29;20071;-65
2022/07/24 08:31:13;;;;;;;5.43;2.97;;;26.50;53.50;;;;;;4887768;29;20059;-63
2022/07/24 08:33:40;;;;;;;6.28;4.00;;;26.60;53.60;;;;;;4876921;29;20060;-63
2022/07/24 08:36:07;;;;;;;6.90;3.75;;;26.60;53.40;;;;;;4890753;29;20044;-64
2022/07/24 08:38:34;;;;;;;5.25;3.00;;;26.70;52.80;;;;;;4889906;29;20076;-63
2022/07/24 08:41:01;;;;;;;5.35;3.05;;;26.80;50.80;;;;;;4893089;29;20157;-64
2022/07/24 08:43:29;;;;;;;6.70;2.95;;;26.90;50.20;;;;;;4888317;29;20049;-63
2022/07/24 08:45:56;;;;;;;5.43;2.97;;;27.10;51.00;;;;;;4878219;29;20139;-64
2022/07/24 08:48:27;;;;;;;4.22;2.60;;;27.20;50.40;;;;;;4886804;29;20061;-65
2022/07/24 08:50:54;;;;;;;4.13;2.20;;;27.30;49.70;;;;;;4887357;29;20051;-66
2022/07/24 08:53:23;;;;;;;3.35;2.10;;;27.40;46.00;;;;;;4883891;29;20048;-64
2022/07/24 08:55:50;;;;;;;5.78;2.35;;;27.50;46.20;;;;;;4886723;29;20049;-65
2022/07/24 08:58:17;;;;;;;5.25;2.50;;;27.60;46.50;;;;;;4888997;29;20058;-63
2022/07/24 09:00:44;;;;;;;4.65;2.63;;;27.60;46.70;;;;;;4886275;29;20477;-63
2022/07/24 09:03:12;;;;;;;6.13;2.95;;;27.70;47.20;;;;;;4883603;29;20095;-65
2022/07/24 09:05:56;;;;;;;5.63;2.75;;;27.80;47.40;;;;;;4879516;29;20501;-64
2022/07/24 09:08:23;;;;;;;5.53;3.03;;;27.90;46.80;;;;;;4885647;29;20085;-64
2022/07/24 09:11:03;;;;;;;6.05;2.88;;;28.00;46.60;;;;;;4882283;29;20048;-64
2022/07/24 09:14:29;;;;;;;4.32;2.65;;;28.10;46.50;;;;;;4882840;29;20128;-63
2022/07/24 09:16:22;;;;;;;5.40;2.80;;;28.10;45.90;;;;;;4887220;29;20072;-64
2022/07/24 09:18:50;;;;;;;4.00;2.53;;;28.30;45.60;;;;;;4883759;29;20063;-63
2022/07/24 09:21:19;;;;;;;5.13;2.55;;;28.30;45.00;;;;;;4885272;29;20152;-64
2022/07/24 09:23:48;;;;;;;4.32;2.58;;;28.40;44.80;;;;;;4884841;29;20052;-63
2022/07/24 09:26:15;;;;;;;5.85;2.72;;;28.50;44.50;;;;;;4880598;29;20132;-65
2022/07/24 09:28:53;;;;;;;4.93;2.67;;;28.60;44.50;;;;;;4888703;29;20056;-65
2022/07/24 09:31:22;;;;;;;5.30;3.20;;;28.70;44.20;;;;;;4875941;29;20052;-64
2022/07/24 09:33:50;;;;;;;4.70;3.10;;;28.80;43.30;;;;;;4884674;29;20141;-64
2022/07/24 09:36:19;;;;;;;5.57;3.33;;;29.00;43.20;;;;;;4881619;29;20060;-63
2022/07/24 09:38:49;;;;;;;4.95;3.17;;;29.00;42.70;;;;;;4881177;29;20399;-65
2022/07/24 09:41:23;;;;;;;8.25;3.20;;;29.10;42.60;;;;;;4880494;29;20061;-64
2022/07/24 09:44:02;;;;;;;5.82;2.75;;;29.20;42.40;;;;;;4874469;29;20053;-65
2022/07/24 09:46:29;;;;;;;4.80;2.75;;;29.30;42.30;;;;;;4882999;29;20179;-65
2022/07/24 09:48:59;;;;;;;4.93;3.03;;;29.40;42.40;;;;;;4888081;29;20067;-64
2022/07/24 09:51:29;;;;;;;6.68;3.30;;;29.50;42.60;;;;;;4883248;29;20163;-64
2022/07/24 09:53:58;;;;;;;5.97;3.47;;;29.60;42.50;;;;;;4880941;29;20056;-65
2022/07/24 09:56:26;;;;;;;6.68;3.53;;;29.60;42.40;;;;;;4887461;29;20071;-64
2022/07/24 09:58:54;;;;;;;6.82;3.60;;;29.70;42.30;;;;;;4881956;29;20089;-64
2022/07/24 10:01:23;;;;;;;6.32;3.03;;;29.80;42.10;;;;;;4884532;29;20056;-64
2022/07/24 10:03:52;;;;;;;5.35;3.05;;;30.00;42.20;;;;;;4880536;29;20047;-65
2022/07/24 10:06:21;;;;;;;5.43;3.42;;;30.00;42.10;;;;;;4881781;29;20049;-66
2022/07/24 10:08:51;;;;;;;6.50;3.50;;;30.10;41.30;;;;;;4879077;29;20057;-64
2022/07/24 10:11:20;;;;;;;6.10;3.65;;;30.20;40.90;;;;;;4886754;29;20064;-66
2022/07/24 10:13:47;;;;;;;5.07;3.20;;;30.20;40.80;;;;;;4879633;29;20053;-64
2022/07/24 10:16:30;;;;;;;5.55;3.40;;;30.30;40.60;;;;;;4896781;29;20064;-64
2022/07/24 10:18:59;;;;;;;4.68;2.83;;;30.40;40.10;;;;;;4879850;29;20061;-64
2022/07/24 10:21:28;;;;;;;5.03;2.65;;;30.40;39.20;;;;;;4880352;29;20056;-65
2022/07/24 10:24:36;;;;;;;6.10;2.92;;;30.50;39.00;;;;;;4878849;29;20049;-64
2022/07/24 10:27:05;;;;;;;5.03;2.97;;;30.50;39.40;;;;;;4883674;29;20146;-64
2022/07/24 10:29:36;;;;;;;6.18;2.83;;;30.50;39.40;;;;;;4878051;29;20064;-63
2022/07/24 10:32:03;;;;;;;6.03;3.22;;;30.60;39.90;;;;;;4888680;29;20053;-64
2022/07/24 10:34:47;;;;;;;5.30;3.10;;;30.70;39.80;;;;;;4897295;29;20059;-65
2022/07/24 10:37:29;;;;;;;5.80;3.40;;;30.80;39.30;;;;;;4885003;29;20060;-64
2022/07/24 10:40:12;;;;;;;5.10;3.15;;;30.90;39.70;;;;;;4884745;29;23221;-63
2022/07/24 10:43:10;;;;;;;5.75;3.63;;;31.00;39.70;;;;;;4890071;29;20067;-64
2022/07/24 10:45:38;;;;;;;6.07;3.78;;;31.00;39.60;;;;;;4882438;29;20044;-65
2022/07/24 10:48:27;;;;;;;5.22;3.58;;;31.00;39.20;;;;;;4878199;29;20167;-64
2022/07/24 10:51:02;;;;;;;6.50;3.50;;;31.10;39.10;;;;;;4884763;29;20103;-64
2022/07/24 10:53:31;;;;;;;7.50;3.63;;;31.20;39.10;;;;;;4890651;29;20047;-64
2022/07/24 10:56:19;;;;;;;6.28;3.50;;;31.20;38.70;;;;;;4885767;29;20051;-65
2022/07/24 10:59:00;;;;;;;5.47;3.35;;;31.30;38.50;;;;;;4886182;29;20048;-65
2022/07/24 11:01:39;;;;;;;6.10;3.05;;;31.40;38.60;;;;;;4883553;29;20055;-63
2022/07/24 11:04:32;;;;;;;5.32;3.10;;;31.40;38.70;;;;;;4883184;29;20052;-64
2022/07/24 11:07:11;;;;;;;6.55;3.75;;;31.40;38.80;;;;;;4887973;29;20961;-63
2022/07/24 11:10:00;;;;;;;6.20;3.20;;;31.50;38.70;;;;;;4872923;29;20065;-63
2022/07/24 11:12:30;;;;;;;6.05;3.70;;;31.50;38.40;;;;;;4883702;29;20067;-63
2022/07/24 11:17:44;;;;;;;4.68;3.10;;;31.50;38.30;;;;;;4884652;29;20487;-64
2022/07/24 11:20:12;;;;;;;5.95;2.90;;;31.60;37.90;;;;;;4885428;29;20059;-64
2022/07/24 11:22:42;;;;;;;4.60;3.00;;;31.60;37.70;;;;;;4879060;29;20480;-65
2022/07/24 11:25:14;;;;;;;6.38;3.30;;;31.60;37.40;;;;;;4884843;29;20044;-65
2022/07/24 11:27:52;;;;;;;6.90;3.25;;;31.60;37.50;;;;;;4887619;29;20072;-65
2022/07/24 11:30:21;;;;;;;4.40;2.80;;;31.70;37.20;;;;;;4886265;29;20077;-62
2022/07/24 11:32:48;;;;;;;4.82;3.08;;;31.70;37.30;;;;;;4876222;29;20049;-64
2022/07/24 11:35:16;;;;;;;5.38;2.70;;;31.80;37.10;;;;;;4886586;29;20068;-63
2022/07/24 11:37:46;;;;;;;4.40;2.65;;;31.80;36.90;;;;;;4888050;29;20132;-64
2022/07/24 11:40:17;;;;;;;4.53;3.05;;;31.90;37.10;;;;;;4893265;29;20076;-64
2022/07/24 11:42:44;;;;;;;4.85;3.10;;;31.90;36.80;;;;;;4887699;29;20060;-63
2022/07/24 11:45:12;;;;;;;5.22;3.10;;;32.00;36.90;;;;;;4868362;29;20058;-65
2022/07/24 11:47:39;;;;;;;;;;;32.00;37.20;;;;;;4887962;29;20065;-64
2022/07/24 11:50:08;;;;;;;5.90;2.90;;;32.00;37.20;;;;;;4874785;29;19946;-64
2022/07/24 11:52:37;;;;;;;4.88;2.85;;;32.00;36.90;;;;;;4887587;29;20487;-64
2022/07/24 11:55:07;;;;;;;;;;;32.00;36.20;;;;;;4889814;29;20056;-64
2022/07/24 11:57:36;;;;;;;4.32;2.65;;;32.00;36.40;;;;;;4895345;29;19934;-65
2022/07/24 12:00:05;;;;;;;;;;;32.10;36.10;;;;;;4878307;29;20136;-67
2022/07/24 12:02:43;;;;;;;5.40;2.67;;;32.10;36.30;;;;;;4873440;29;19923;-66
2022/07/24 12:05:10;;;;;;;4.50;3.10;;;32.10;36.50;;;;;;4889445;29;20065;-65
2022/07/24 12:07:37;;;;;;;4.50;2.47;;;32.20;36.30;;;;;;4879252;29;20045;-64
2022/07/24 12:10:05;;;;;;;4.88;3.00;;;32.20;36.70;;;;;;4885964;29;20052;-63
2022/07/24 12:12:34;;;;;;;5.32;2.88;;;32.10;36.60;;;;;;4879446;29;20483;-64
2022/07/24 12:15:03;;;;;;;5.05;2.85;;;32.20;36.50;;;;;;4885325;29;20060;-64
2022/07/24 12:17:32;;;;;;;5.88;3.35;;;32.20;36.30;;;;;;4878455;29;20057;-64
2022/07/24 12:20:02;;;;;;;4.25;2.83;;;32.20;36.30;;;;;;4878286;29;20055;-64
2022/07/24 12:22:29;;;;;;;5.72;3.17;;;32.30;36.90;;;;;;4879817;29;20183;-63
2022/07/24 12:24:58;;;;;;;5.55;3.13;;;32.20;36.50;;;;;;4880696;29;20059;-64
2022/07/24 12:27:40;;;;;;;5.88;3.10;;;32.20;36.40;;;;;;4876772;29;20053;-63
2022/07/24 12:30:22;;;;;;;5.10;2.95;;;32.20;36.30;;;;;;4876640;29;20053;-66
2022/07/24 12:32:57;;;;;;;4.70;2.75;;;32.20;35.90;;;;;;4876805;29;20053;-65
2022/07/24 12:35:26;;;;;;;4.78;2.75;;;32.20;36.40;;;;;;4883411;29;20152;-64
2022/07/24 12:37:54;;;;;;;5.72;2.70;;;32.20;36.20;;;;;;4885933;29;20641;-65
2022/07/24 12:40:26;;;;;;;5.47;2.55;;;32.20;36.70;;;;;;4887658;29;20040;-66
2022/07/24 12:42:58;;;;;;;5.90;2.50;;;32.10;36.20;;;;;;4887881;29;22359;-64
2022/07/24 12:45:25;;;;;;;4.38;2.92;;;32.10;36.40;;;;;;4888898;29;20053;-65
2022/07/24 12:48:17;;;;;;;4.30;2.75;;;32.10;36.40;;;;;;4886583;29;20061;-65
2022/07/24 12:51:05;;;;;;;4.30;2.53;;;32.20;36.10;;;;;;4888529;29;20067;-64
2022/07/24 12:53:34;;;;;;;6.32;2.85;;;32.20;35.40;;;;;;4875334;29;20047;-65
2022/07/24 12:56:08;;;;;;;3.90;2.60;;;32.30;35.30;;;;;;4879592;29;20057;-64
2022/07/24 12:58:52;;;;;;;6.88;2.97;;;32.20;35.40;;;;;;4888600;29;20186;-66